Flight Track Log - Related Links

Times and Time Zones

All times are in EDT time to prevent confusion due to time zone crossing. See the SAS874 flight status page for this flight to view local times or setup timezone preferences in your user account.


Time Position Orientation Groundspeed Altitude Reporting Facility
EDT Latitude Longitude Course Direction KTS MPH feet Rate Location/Type
Tue 08:18:15 AM 60.1909 11.1580 96° East  Level Estimated
Tue 08:19:15 AM 60.1784 11.3883 96° East  Level Estimated
Tue 08:20:15 AM 60.1656 11.6184 96° East  Level Estimated
Tue 08:21:15 AM 60.1524 11.8483 97° East  Level Estimated
Tue 08:22:15 AM 60.1387 12.0781 97° East  Level Estimated
Tue 08:23:15 AM 60.1247 12.3076 97° East  Level Estimated
Tue 08:24:15 AM 60.1102 12.5370 97° East  Level Estimated
Tue 08:25:15 AM 60.0954 12.7662 97° East  Level Estimated
Tue 08:26:15 AM 60.0802 12.9951 98° East  Level Estimated
Tue 08:27:15 AM 60.0646 13.2238 98° East  Level Estimated
Tue 08:28:15 AM 60.0486 13.4523 98° East  Level Estimated
Tue 08:29:15 AM 60.0322 13.6806 98° East  Level Estimated
Tue 08:30:15 AM 60.0154 13.9087 98° East  Level Estimated
Tue 08:31:15 AM 59.9982 14.1365 99° East  Level Estimated
Tue 08:32:15 AM 59.9806 14.3641 99° East  Level Estimated
Tue 08:33:15 AM 59.9626 14.5914 99° East  Level Estimated
Tue 08:34:15 AM 59.9442 14.8185 99° East  Level Estimated
Tue 08:35:15 AM 59.9255 15.0454 99° East  Level Estimated
Tue 08:36:15 AM 59.9063 15.2720 100° East  Level Estimated
Tue 08:37:15 AM 59.8868 15.4983 100° East  Level Estimated
Tue 08:38:15 AM 59.8669 15.7243 100° East  Level Estimated
Tue 08:39:15 AM 59.8466 15.9501 100° East  Level Estimated
Tue 08:40:15 AM 59.8259 16.1756 100° East  Level Estimated
Tue 08:41:15 AM 59.8048 16.4008 101° East  Level Estimated
Tue 08:42:15 AM 59.7834 16.6257 101° East  Level Estimated
Tue 08:43:15 AM 59.7615 16.8504 101° East  Level Estimated
Tue 08:44:15 AM 59.7393 17.0747 101° East  Level Estimated
Tue 08:45:15 AM 59.7167 17.2987 101° East  Level Estimated
Tue 08:46:15 AM 59.6937 17.5225 102° East  Level Estimated
Tue 08:47:15 AM 59.6703 17.7459 102° East  Level Estimated
Tue 08:48:15 AM 59.6465 17.9690 282° West  Level Estimated
Tue 08:49:15 AM 59.6703 17.7459 102° East  Level Estimated
Tue 08:50:15 AM 59.6465 17.9690 282° West  Level Estimated
Tue 08:51:15 AM 59.6703 17.7459 102° East  Level Estimated
Tue 08:52:15 AM 59.6465 17.9690 282° West  Level Estimated
Tue 08:53:15 AM 59.6703 17.7459 102° East  Level Estimated
Tue 08:54:15 AM 59.6465 17.9690 282° West  Level Estimated
Tue 08:55:15 AM 59.6703 17.7459 102° East  Level Estimated
Tue 08:56:15 AM 59.6465 17.9690 282° West  Level Estimated
Tue 08:57:15 AM 59.6703 17.7459 102° East  Level Estimated
Tue 08:58:15 AM 59.6465 17.9690 282° West  Level Estimated
Tue 08:59:15 AM 59.6703 17.7459 102° East  Level Estimated
Tue 09:00:15 AM 59.6465 17.9690 102° East  Level Estimated

Login

Don't have an account? Register now (free) for customized features, flight alerts, and more!